sensor_id;sensor_type;location;lat;lon;timestamp;pressure;altitude;pressure_sealevel;temperature;humidity
44127;BME280;29786;50.798;7.302;2023-10-08T00:00:50;99920;;;17.24;100
44127;BME280;29786;50.798;7.302;2023-10-08T00:01:50;99920;;;17.19;100
44127;BME280;29786;50.798;7.302;2023-10-08T00:02:50;99920;;;17.23;100
44127;BME280;29786;50.798;7.302;2023-10-08T00:03:50;99920;;;17.24;100
44127;BME280;29786;50.798;7.302;2023-10-08T00:04:50;99930;;;17.27;100
44127;BME280;29786;50.798;7.302;2023-10-08T00:05:50;99930;;;17.28;100
44127;BME280;29786;50.798;7.302;2023-10-08T00:06:50;99930;;;17.28;100
44127;BME280;29786;50.798;7.302;2023-10-08T00:07:50;99940;;;17.27;100
44127;BME280;29786;50.798;7.302;2023-10-08T00:08:50;99940;;;17.26;100
44127;BME280;29786;50.798;7.302;2023-10-08T00:09:50;99940;;;17.25;100
44127;BME280;29786;50.798;7.302;2023-10-08T00:10:50;99930;;;17.21;100
44127;BME280;29786;50.798;7.302;2023-10-08T00:11:50;99930;;;17.19;100
44127;BME280;29786;50.798;7.302;2023-10-08T00:12:50;99930;;;17.2;100
44127;BME280;29786;50.798;7.302;2023-10-08T00:13:50;99920;;;17.15;100
44127;BME280;29786;50.798;7.302;2023-10-08T00:14:50;99920;;;17.11;100
44127;BME280;29786;50.798;7.302;2023-10-08T00:15:50;99920;;;17.1;100
44127;BME280;29786;50.798;7.302;2023-10-08T00:16:50;99930;;;17.12;100
44127;BME280;29786;50.798;7.302;2023-10-08T00:17:50;99930;;;17.15;100
44127;BME280;29786;50.798;7.302;2023-10-08T00:18:50;99930;;;17.14;100
44127;BME280;29786;50.798;7.302;2023-10-08T00:19:50;99930;;;17.09;100
44127;BME280;29786;50.798;7.302;2023-10-08T00:20:50;99930;;;17.08;100
44127;BME280;29786;50.798;7.302;2023-10-08T00:21:50;99930;;;17.08;100
44127;BME280;29786;50.798;7.302;2023-10-08T00:22:50;99930;;;17.08;100
44127;BME280;29786;50.798;7.302;2023-10-08T00:23:50;99930;;;17.01;100
44127;BME280;29786;50.798;7.302;2023-10-08T00:24:50;99930;;;17;100
44127;BME280;29786;50.798;7.302;2023-10-08T00:25:50;99920;;;16.98;100
44127;BME280;29786;50.798;7.302;2023-10-08T00:26:50;99930;;;16.95;100
44127;BME280;29786;50.798;7.302;2023-10-08T00:27:50;99930;;;16.95;100
44127;BME280;29786;50.798;7.302;2023-10-08T00:28:50;99940;;;16.94;100
44127;BME280;29786;50.798;7.302;2023-10-08T00:29:50;99930;;;16.9;100
44127;BME280;29786;50.798;7.302;2023-10-08T00:30:50;99930;;;16.87;100
44127;BME280;29786;50.798;7.302;2023-10-08T00:31:50;99930;;;16.86;100
44127;BME280;29786;50.798;7.302;2023-10-08T00:32:50;99930;;;16.85;100
44127;BME280;29786;50.798;7.302;2023-10-08T00:33:50;99930;;;16.91;100
44127;BME280;29786;50.798;7.302;2023-10-08T00:34:50;99920;;;16.92;100
44127;BME280;29786;50.798;7.302;2023-10-08T00:35:50;99930;;;16.91;100
44127;BME280;29786;50.798;7.302;2023-10-08T00:36:50;99920;;;16.87;100
44127;BME280;29786;50.798;7.302;2023-10-08T00:37:50;99920;;;16.84;100
44127;BME280;29786;50.798;7.302;2023-10-08T00:38:50;99920;;;16.84;100
44127;BME280;29786;50.798;7.302;2023-10-08T00:39:50;99920;;;16.87;100
44127;BME280;29786;50.798;7.302;2023-10-08T00:40:50;99920;;;16.89;100
44127;BME280;29786;50.798;7.302;2023-10-08T00:41:50;99920;;;16.91;100
44127;BME280;29786;50.798;7.302;2023-10-08T00:42:50;99920;;;16.93;100
44127;BME280;29786;50.798;7.302;2023-10-08T00:43:50;99920;;;16.92;100
44127;BME280;29786;50.798;7.302;2023-10-08T00:44:50;99920;;;16.91;100
44127;BME280;29786;50.798;7.302;2023-10-08T00:45:50;99920;;;16.86;100
44127;BME280;29786;50.798;7.302;2023-10-08T00:46:50;99920;;;16.84;100
44127;BME280;29786;50.798;7.302;2023-10-08T00:47:50;99920;;;16.83;100
44127;BME280;29786;50.798;7.302;2023-10-08T00:48:51;99920;;;16.79;100
44127;BME280;29786;50.798;7.302;2023-10-08T00:49:50;99920;;;16.76;100
44127;BME280;29786;50.798;7.302;2023-10-08T00:50:50;99920;;;16.76;100
44127;BME280;29786;50.798;7.302;2023-10-08T00:51:51;99930;;;16.71;100
44127;BME280;29786;50.798;7.302;2023-10-08T00:52:50;99930;;;16.71;100
44127;BME280;29786;50.798;7.302;2023-10-08T00:53:52;99930;;;16.7;100
44127;BME280;29786;50.798;7.302;2023-10-08T00:54:50;99930;;;16.7;100
44127;BME280;29786;50.798;7.302;2023-10-08T00:55:50;99930;;;16.66;100
44127;BME280;29786;50.798;7.302;2023-10-08T00:56:50;99930;;;16.68;100
44127;BME280;29786;50.798;7.302;2023-10-08T00:57:51;99930;;;16.62;100
44127;BME280;29786;50.798;7.302;2023-10-08T00:58:50;99930;;;16.6;100
44127;BME280;29786;50.798;7.302;2023-10-08T00:59:50;99930;;;16.54;100
44127;BME280;29786;50.798;7.302;2023-10-08T01:00:51;99940;;;16.5;100
44127;BME280;29786;50.798;7.302;2023-10-08T01:01:50;99940;;;16.5;100
44127;BME280;29786;50.798;7.302;2023-10-08T01:02:50;99930;;;16.44;100
44127;BME280;29786;50.798;7.302;2023-10-08T01:03:50;99940;;;16.43;100
44127;BME280;29786;50.798;7.302;2023-10-08T01:04:50;99940;;;16.43;100
44127;BME280;29786;50.798;7.302;2023-10-08T01:05:50;99930;;;16.41;100
44127;BME280;29786;50.798;7.302;2023-10-08T01:06:54;99940;;;16.37;100
44127;BME280;29786;50.798;7.302;2023-10-08T01:07:50;99940;;;16.37;100
44127;BME280;29786;50.798;7.302;2023-10-08T01:08:50;99930;;;16.36;100
44127;BME280;29786;50.798;7.302;2023-10-08T01:09:50;99930;;;16.34;100
44127;BME280;29786;50.798;7.302;2023-10-08T01:10:50;99930;;;16.33;100
44127;BME280;29786;50.798;7.302;2023-10-08T01:12:06;99930;;;16.32;100
44127;BME280;29786;50.798;7.302;2023-10-08T01:12:50;99930;;;16.32;100
44127;BME280;29786;50.798;7.302;2023-10-08T01:13:50;99930;;;16.37;100
44127;BME280;29786;50.798;7.302;2023-10-08T01:14:50;99930;;;16.34;100
44127;BME280;29786;50.798;7.302;2023-10-08T01:15:50;99930;;;16.37;100
44127;BME280;29786;50.798;7.302;2023-10-08T01:16:50;99930;;;16.37;100
44127;BME280;29786;50.798;7.302;2023-10-08T01:17:50;99930;;;16.39;100
44127;BME280;29786;50.798;7.302;2023-10-08T01:18:50;99930;;;16.37;100
44127;BME280;29786;50.798;7.302;2023-10-08T01:19:50;99930;;;16.35;100
44127;BME280;29786;50.798;7.302;2023-10-08T01:20:50;99920;;;16.34;100
44127;BME280;29786;50.798;7.302;2023-10-08T01:21:50;99920;;;16.35;100
44127;BME280;29786;50.798;7.302;2023-10-08T01:22:50;99920;;;16.34;100
44127;BME280;29786;50.798;7.302;2023-10-08T01:23:50;99920;;;16.34;100
44127;BME280;29786;50.798;7.302;2023-10-08T01:24:50;99920;;;16.34;100
44127;BME280;29786;50.798;7.302;2023-10-08T01:25:50;99920;;;16.31;100
44127;BME280;29786;50.798;7.302;2023-10-08T01:26:50;99920;;;16.35;100
44127;BME280;29786;50.798;7.302;2023-10-08T01:27:55;99930;;;16.36;100
44127;BME280;29786;50.798;7.302;2023-10-08T01:28:50;99930;;;16.34;100
44127;BME280;29786;50.798;7.302;2023-10-08T01:29:50;99930;;;16.29;100
44127;BME280;29786;50.798;7.302;2023-10-08T01:30:50;99930;;;16.26;100
44127;BME280;29786;50.798;7.302;2023-10-08T01:31:50;99940;;;16.24;100
44127;BME280;29786;50.798;7.302;2023-10-08T01:32:50;99930;;;16.21;100
44127;BME280;29786;50.798;7.302;2023-10-08T01:33:50;99930;;;16.19;100
44127;BME280;29786;50.798;7.302;2023-10-08T01:34:50;99920;;;16.19;100
44127;BME280;29786;50.798;7.302;2023-10-08T01:35:50;99920;;;16.18;100
44127;BME280;29786;50.798;7.302;2023-10-08T01:36:50;99920;;;16.16;100
44127;BME280;29786;50.798;7.302;2023-10-08T01:37:50;99920;;;16.18;100
44127;BME280;29786;50.798;7.302;2023-10-08T01:38:50;99920;;;16.18;100
44127;BME280;29786;50.798;7.302;2023-10-08T01:39:50;99920;;;16.2;100
44127;BME280;29786;50.798;7.302;2023-10-08T01:40:50;99920;;;16.21;100
44127;BME280;29786;50.798;7.302;2023-10-08T01:41:50;99920;;;16.24;100
44127;BME280;29786;50.798;7.302;2023-10-08T01:42:50;99920;;;16.2;100
44127;BME280;29786;50.798;7.302;2023-10-08T01:43:50;99920;;;16.21;100
44127;BME280;29786;50.798;7.302;2023-10-08T01:44:50;99910;;;16.2;100
44127;BME280;29786;50.798;7.302;2023-10-08T01:45:50;99910;;;16.2;100
44127;BME280;29786;50.798;7.302;2023-10-08T01:46:50;99910;;;16.2;100
44127;BME280;29786;50.798;7.302;2023-10-08T01:47:50;99910;;;16.21;100
44127;BME280;29786;50.798;7.302;2023-10-08T01:48:50;99910;;;16.18;100
44127;BME280;29786;50.798;7.302;2023-10-08T01:49:50;99910;;;16.2;100
44127;BME280;29786;50.798;7.302;2023-10-08T01:50:50;99900;;;16.19;100
44127;BME280;29786;50.798;7.302;2023-10-08T01:51:50;99900;;;16.2;100
44127;BME280;29786;50.798;7.302;2023-10-08T01:52:50;99910;;;16.18;100
44127;BME280;29786;50.798;7.302;2023-10-08T01:53:51;99900;;;16.15;100
44127;BME280;29786;50.798;7.302;2023-10-08T01:54:50;99910;;;16.17;100
44127;BME280;29786;50.798;7.302;2023-10-08T01:55:50;99910;;;16.09;100
44127;BME280;29786;50.798;7.302;2023-10-08T01:56:50;99900;;;16.1;100
44127;BME280;29786;50.798;7.302;2023-10-08T01:57:50;99900;;;16.09;100
44127;BME280;29786;50.798;7.302;2023-10-08T01:58:50;99900;;;16.11;100
44127;BME280;29786;50.798;7.302;2023-10-08T01:59:50;99900;;;16.06;100
44127;BME280;29786;50.798;7.302;2023-10-08T02:00:50;99910;;;16.07;100
44127;BME280;29786;50.798;7.302;2023-10-08T02:01:50;99910;;;16.08;100
44127;BME280;29786;50.798;7.302;2023-10-08T02:02:50;99920;;;16.06;100
44127;BME280;29786;50.798;7.302;2023-10-08T02:03:50;99920;;;16.04;100
44127;BME280;29786;50.798;7.302;2023-10-08T02:04:50;99930;;;16.02;100
44127;BME280;29786;50.798;7.302;2023-10-08T02:05:50;99940;;;15.99;100
44127;BME280;29786;50.798;7.302;2023-10-08T02:06:50;99930;;;15.91;100
44127;BME280;29786;50.798;7.302;2023-10-08T02:07:50;99930;;;15.91;100
44127;BME280;29786;50.798;7.302;2023-10-08T02:08:50;99930;;;15.85;100
44127;BME280;29786;50.798;7.302;2023-10-08T02:09:50;99920;;;15.85;100
44127;BME280;29786;50.798;7.302;2023-10-08T02:10:50;99920;;;15.84;100
44127;BME280;29786;50.798;7.302;2023-10-08T02:11:50;99930;;;15.78;100
44127;BME280;29786;50.798;7.302;2023-10-08T02:12:50;99930;;;15.76;100
44127;BME280;29786;50.798;7.302;2023-10-08T02:14:50;99930;;;15.73;100
44127;BME280;29786;50.798;7.302;2023-10-08T02:15:50;99940;;;15.72;100
44127;BME280;29786;50.798;7.302;2023-10-08T02:16:50;99940;;;15.7;100
44127;BME280;29786;50.798;7.302;2023-10-08T02:17:50;99940;;;15.7;100
44127;BME280;29786;50.798;7.302;2023-10-08T02:18:50;99940;;;15.71;100
44127;BME280;29786;50.798;7.302;2023-10-08T02:19:50;99940;;;15.73;100
44127;BME280;29786;50.798;7.302;2023-10-08T02:20:50;99940;;;15.74;100
44127;BME280;29786;50.798;7.302;2023-10-08T02:21:50;99940;;;15.71;100
44127;BME280;29786;50.798;7.302;2023-10-08T02:22:50;99940;;;15.69;100
44127;BME280;29786;50.798;7.302;2023-10-08T02:23:50;99940;;;15.69;100
44127;BME280;29786;50.798;7.302;2023-10-08T02:24:50;99940;;;15.66;100
44127;BME280;29786;50.798;7.302;2023-10-08T02:25:50;99930;;;15.66;100
44127;BME280;29786;50.798;7.302;2023-10-08T02:26:51;99930;;;15.65;100
44127;BME280;29786;50.798;7.302;2023-10-08T02:27:50;99930;;;15.64;100
44127;BME280;29786;50.798;7.302;2023-10-08T02:28:50;99930;;;15.68;100
44127;BME280;29786;50.798;7.302;2023-10-08T02:29:50;99930;;;15.67;100
44127;BME280;29786;50.798;7.302;2023-10-08T02:30:50;99930;;;15.71;100
44127;BME280;29786;50.798;7.302;2023-10-08T02:31:50;99930;;;15.73;100
44127;BME280;29786;50.798;7.302;2023-10-08T02:32:50;99920;;;15.74;100
44127;BME280;29786;50.798;7.302;2023-10-08T02:33:50;99930;;;15.76;100
44127;BME280;29786;50.798;7.302;2023-10-08T02:34:50;99930;;;15.77;100
44127;BME280;29786;50.798;7.302;2023-10-08T02:35:50;99920;;;15.78;100
44127;BME280;29786;50.798;7.302;2023-10-08T02:36:50;99920;;;15.8;100
44127;BME280;29786;50.798;7.302;2023-10-08T02:37:50;99930;;;15.77;100
44127;BME280;29786;50.798;7.302;2023-10-08T02:38:50;99930;;;15.81;100
44127;BME280;29786;50.798;7.302;2023-10-08T02:39:50;99930;;;15.82;100
44127;BME280;29786;50.798;7.302;2023-10-08T02:40:50;99930;;;15.88;100
44127;BME280;29786;50.798;7.302;2023-10-08T02:41:50;99940;;;15.83;100
44127;BME280;29786;50.798;7.302;2023-10-08T02:42:50;99940;;;15.8;100
44127;BME280;29786;50.798;7.302;2023-10-08T02:43:50;99940;;;15.83;100
44127;BME280;29786;50.798;7.302;2023-10-08T02:44:50;99940;;;15.77;100
44127;BME280;29786;50.798;7.302;2023-10-08T02:45:50;99940;;;15.79;100
44127;BME280;29786;50.798;7.302;2023-10-08T02:46:50;99940;;;15.8;100
44127;BME280;29786;50.798;7.302;2023-10-08T02:47:50;99940;;;15.78;100
44127;BME280;29786;50.798;7.302;2023-10-08T02:48:50;99940;;;15.77;100
44127;BME280;29786;50.798;7.302;2023-10-08T02:49:50;99940;;;15.77;100
44127;BME280;29786;50.798;7.302;2023-10-08T02:50:50;99940;;;15.81;100
44127;BME280;29786;50.798;7.302;2023-10-08T02:51:51;99940;;;15.8;100
44127;BME280;29786;50.798;7.302;2023-10-08T02:52:50;99950;;;15.83;100
44127;BME280;29786;50.798;7.302;2023-10-08T02:53:50;99950;;;15.87;100
44127;BME280;29786;50.798;7.302;2023-10-08T02:54:50;99950;;;15.89;100
44127;BME280;29786;50.798;7.302;2023-10-08T02:55:50;99950;;;15.88;100
44127;BME280;29786;50.798;7.302;2023-10-08T02:56:51;99950;;;15.87;100
44127;BME280;29786;50.798;7.302;2023-10-08T02:57:50;99960;;;15.84;100
44127;BME280;29786;50.798;7.302;2023-10-08T02:58:50;99950;;;15.73;100
44127;BME280;29786;50.798;7.302;2023-10-08T02:59:50;99950;;;15.68;100
44127;BME280;29786;50.798;7.302;2023-10-08T03:00:50;99950;;;15.74;100
44127;BME280;29786;50.798;7.302;2023-10-08T03:01:50;99950;;;15.79;100
44127;BME280;29786;50.798;7.302;2023-10-08T03:02:50;99950;;;15.8;100
44127;BME280;29786;50.798;7.302;2023-10-08T03:03:50;99950;;;15.86;100
44127;BME280;29786;50.798;7.302;2023-10-08T03:04:51;99950;;;15.88;100
44127;BME280;29786;50.798;7.302;2023-10-08T03:05:51;99950;;;15.87;100
44127;BME280;29786;50.798;7.302;2023-10-08T03:06:50;99950;;;15.89;100
44127;BME280;29786;50.798;7.302;2023-10-08T03:07:50;99950;;;15.89;100
44127;BME280;29786;50.798;7.302;2023-10-08T03:08:50;99960;;;15.89;100
44127;BME280;29786;50.798;7.302;2023-10-08T03:09:50;99940;;;15.83;100
44127;BME280;29786;50.798;7.302;2023-10-08T03:10:50;99930;;;15.76;100
44127;BME280;29786;50.798;7.302;2023-10-08T03:11:50;99930;;;15.82;100
44127;BME280;29786;50.798;7.302;2023-10-08T03:12:50;99930;;;15.87;100
44127;BME280;29786;50.798;7.302;2023-10-08T03:13:50;99940;;;15.94;100
44127;BME280;29786;50.798;7.302;2023-10-08T03:14:50;99940;;;16.01;100
44127;BME280;29786;50.798;7.302;2023-10-08T03:15:50;99940;;;16.04;100
44127;BME280;29786;50.798;7.302;2023-10-08T03:16:51;99940;;;16.04;100
44127;BME280;29786;50.798;7.302;2023-10-08T03:17:50;99940;;;16.08;100
44127;BME280;29786;50.798;7.302;2023-10-08T03:18:50;99940;;;16.1;100
44127;BME280;29786;50.798;7.302;2023-10-08T03:19:50;99940;;;16.1;100
44127;BME280;29786;50.798;7.302;2023-10-08T03:20:50;99940;;;16.12;100
44127;BME280;29786;50.798;7.302;2023-10-08T03:21:50;99940;;;16.11;100
44127;BME280;29786;50.798;7.302;2023-10-08T03:22:50;99940;;;16.16;100
44127;BME280;29786;50.798;7.302;2023-10-08T03:23:50;99940;;;16.17;100
44127;BME280;29786;50.798;7.302;2023-10-08T03:24:50;99940;;;16.18;100
44127;BME280;29786;50.798;7.302;2023-10-08T03:25:50;99940;;;16.2;100
44127;BME280;29786;50.798;7.302;2023-10-08T03:26:50;99940;;;16.21;100
44127;BME280;29786;50.798;7.302;2023-10-08T03:27:50;99930;;;16.23;100
44127;BME280;29786;50.798;7.302;2023-10-08T03:28:50;99940;;;16.2;100
44127;BME280;29786;50.798;7.302;2023-10-08T03:29:50;99940;;;16.18;100
44127;BME280;29786;50.798;7.302;2023-10-08T03:30:51;99930;;;16.24;100
44127;BME280;29786;50.798;7.302;2023-10-08T03:31:50;99930;;;16.25;100
44127;BME280;29786;50.798;7.302;2023-10-08T03:32:50;99930;;;16.26;100
44127;BME280;29786;50.798;7.302;2023-10-08T03:33:50;99940;;;16.18;100
44127;BME280;29786;50.798;7.302;2023-10-08T03:34:50;99940;;;16.2;100
44127;BME280;29786;50.798;7.302;2023-10-08T03:35:50;99950;;;16.21;100
44127;BME280;29786;50.798;7.302;2023-10-08T03:36:50;99950;;;16.23;100
44127;BME280;29786;50.798;7.302;2023-10-08T03:37:50;99960;;;16.23;100
44127;BME280;29786;50.798;7.302;2023-10-08T03:38:50;99950;;;16.2;100
44127;BME280;29786;50.798;7.302;2023-10-08T03:39:50;99950;;;16.21;100
44127;BME280;29786;50.798;7.302;2023-10-08T03:40:50;99950;;;16.26;100
44127;BME280;29786;50.798;7.302;2023-10-08T03:41:50;99960;;;16.25;100
44127;BME280;29786;50.798;7.302;2023-10-08T03:42:50;99960;;;16.29;100
44127;BME280;29786;50.798;7.302;2023-10-08T03:43:50;99960;;;16.28;100
44127;BME280;29786;50.798;7.302;2023-10-08T03:44:50;99970;;;16.25;100
44127;BME280;29786;50.798;7.302;2023-10-08T03:45:50;99960;;;16.26;100
44127;BME280;29786;50.798;7.302;2023-10-08T03:46:50;99970;;;16.27;100
44127;BME280;29786;50.798;7.302;2023-10-08T03:47:50;99970;;;16.26;100
44127;BME280;29786;50.798;7.302;2023-10-08T03:48:50;99970;;;16.23;100
44127;BME280;29786;50.798;7.302;2023-10-08T03:49:50;99970;;;16.2;100
44127;BME280;29786;50.798;7.302;2023-10-08T03:50:50;99970;;;16.2;100
44127;BME280;29786;50.798;7.302;2023-10-08T03:51:51;99970;;;16.21;100
44127;BME280;29786;50.798;7.302;2023-10-08T03:52:50;99980;;;16.21;100
44127;BME280;29786;50.798;7.302;2023-10-08T03:53:50;99980;;;16.23;100
44127;BME280;29786;50.798;7.302;2023-10-08T03:54:50;99980;;;16.25;100
44127;BME280;29786;50.798;7.302;2023-10-08T03:55:50;99970;;;16.21;100
44127;BME280;29786;50.798;7.302;2023-10-08T03:56:50;99970;;;16.26;100
44127;BME280;29786;50.798;7.302;2023-10-08T03:57:50;99970;;;16.23;100
44127;BME280;29786;50.798;7.302;2023-10-08T03:58:50;99970;;;16.24;100
44127;BME280;29786;50.798;7.302;2023-10-08T03:59:50;99980;;;16.25;100
44127;BME280;29786;50.798;7.302;2023-10-08T04:00:50;99980;;;16.29;100
44127;BME280;29786;50.798;7.302;2023-10-08T04:01:50;99980;;;16.29;100
44127;BME280;29786;50.798;7.302;2023-10-08T04:02:50;99970;;;16.28;100
44127;BME280;29786;50.798;7.302;2023-10-08T04:03:50;99960;;;16.29;100
44127;BME280;29786;50.798;7.302;2023-10-08T04:04:50;99960;;;16.25;100
44127;BME280;29786;50.798;7.302;2023-10-08T04:05:50;99960;;;16.25;100
44127;BME280;29786;50.798;7.302;2023-10-08T04:06:50;99960;;;16.26;100
44127;BME280;29786;50.798;7.302;2023-10-08T04:07:50;99960;;;16.21;100
44127;BME280;29786;50.798;7.302;2023-10-08T04:08:50;99960;;;16.23;100
44127;BME280;29786;50.798;7.302;2023-10-08T04:09:50;99960;;;16.26;100
44127;BME280;29786;50.798;7.302;2023-10-08T04:10:50;99960;;;16.23;100
44127;BME280;29786;50.798;7.302;2023-10-08T04:11:50;99960;;;16.19;100
44127;BME280;29786;50.798;7.302;2023-10-08T04:12:50;99960;;;16.15;100
44127;BME280;29786;50.798;7.302;2023-10-08T04:13:50;99960;;;16.07;100
44127;BME280;29786;50.798;7.302;2023-10-08T04:14:50;99960;;;16.04;100
44127;BME280;29786;50.798;7.302;2023-10-08T04:15:50;99950;;;16.03;100
44127;BME280;29786;50.798;7.302;2023-10-08T04:16:50;99950;;;16.01;100
44127;BME280;29786;50.798;7.302;2023-10-08T04:17:50;99960;;;16;100
44127;BME280;29786;50.798;7.302;2023-10-08T04:18:50;99970;;;16.02;100
44127;BME280;29786;50.798;7.302;2023-10-08T04:19:50;99970;;;15.98;100
44127;BME280;29786;50.798;7.302;2023-10-08T04:20:50;99980;;;15.91;100
44127;BME280;29786;50.798;7.302;2023-10-08T04:21:50;99980;;;15.84;100
44127;BME280;29786;50.798;7.302;2023-10-08T04:22:50;99980;;;15.78;100
44127;BME280;29786;50.798;7.302;2023-10-08T04:23:50;99980;;;15.76;100
44127;BME280;29786;50.798;7.302;2023-10-08T04:24:50;99970;;;15.76;100
44127;BME280;29786;50.798;7.302;2023-10-08T04:25:50;99970;;;15.64;100
44127;BME280;29786;50.798;7.302;2023-10-08T04:26:50;99970;;;15.64;100
44127;BME280;29786;50.798;7.302;2023-10-08T04:27:50;99970;;;15.63;100
44127;BME280;29786;50.798;7.302;2023-10-08T04:28:53;99960;;;15.66;100
44127;BME280;29786;50.798;7.302;2023-10-08T04:29:50;99960;;;15.62;100
44127;BME280;29786;50.798;7.302;2023-10-08T04:30:50;99950;;;15.54;100
44127;BME280;29786;50.798;7.302;2023-10-08T04:31:50;99950;;;15.52;100
44127;BME280;29786;50.798;7.302;2023-10-08T04:32:50;99940;;;15.49;100
44127;BME280;29786;50.798;7.302;2023-10-08T04:33:50;99940;;;15.45;100
44127;BME280;29786;50.798;7.302;2023-10-08T04:34:50;99950;;;15.55;100
44127;BME280;29786;50.798;7.302;2023-10-08T04:35:50;99950;;;15.7;100
44127;BME280;29786;50.798;7.302;2023-10-08T04:36:50;99960;;;15.8;100
44127;BME280;29786;50.798;7.302;2023-10-08T04:37:50;99950;;;15.8;100
44127;BME280;29786;50.798;7.302;2023-10-08T04:38:50;99940;;;15.79;100
44127;BME280;29786;50.798;7.302;2023-10-08T04:39:50;99950;;;15.76;100
44127;BME280;29786;50.798;7.302;2023-10-08T04:40:50;99940;;;15.85;100
44127;BME280;29786;50.798;7.302;2023-10-08T04:41:50;99940;;;15.85;100
44127;BME280;29786;50.798;7.302;2023-10-08T04:42:50;99940;;;15.84;100
44127;BME280;29786;50.798;7.302;2023-10-08T04:43:50;99940;;;15.81;100
44127;BME280;29786;50.798;7.302;2023-10-08T04:44:50;99940;;;15.81;100
44127;BME280;29786;50.798;7.302;2023-10-08T04:45:51;99950;;;15.74;100
44127;BME280;29786;50.798;7.302;2023-10-08T04:46:50;99950;;;15.75;100
44127;BME280;29786;50.798;7.302;2023-10-08T04:47:50;99960;;;15.73;100
44127;BME280;29786;50.798;7.302;2023-10-08T04:48:50;99960;;;15.72;100
44127;BME280;29786;50.798;7.302;2023-10-08T04:49:50;99970;;;15.7;100
44127;BME280;29786;50.798;7.302;2023-10-08T04:50:51;99970;;;15.73;100
44127;BME280;29786;50.798;7.302;2023-10-08T04:51:50;99970;;;15.69;100
44127;BME280;29786;50.798;7.302;2023-10-08T04:52:50;99970;;;15.69;100
44127;BME280;29786;50.798;7.302;2023-10-08T04:53:50;99970;;;15.65;100
44127;BME280;29786;50.798;7.302;2023-10-08T04:54:50;99970;;;15.65;100
44127;BME280;29786;50.798;7.302;2023-10-08T04:55:50;99960;;;15.59;100
44127;BME280;29786;50.798;7.302;2023-10-08T04:56:50;99960;;;15.61;100
44127;BME280;29786;50.798;7.302;2023-10-08T04:57:50;99970;;;15.65;100
44127;BME280;29786;50.798;7.302;2023-10-08T04:58:50;99960;;;15.59;100
44127;BME280;29786;50.798;7.302;2023-10-08T04:59:50;99960;;;15.56;100
44127;BME280;29786;50.798;7.302;2023-10-08T05:00:50;99960;;;15.5;100
44127;BME280;29786;50.798;7.302;2023-10-08T05:01:50;99950;;;15.53;100
44127;BME280;29786;50.798;7.302;2023-10-08T05:02:50;99940;;;15.58;100
44127;BME280;29786;50.798;7.302;2023-10-08T05:03:51;99950;;;15.61;100
44127;BME280;29786;50.798;7.302;2023-10-08T05:04:50;99950;;;15.61;100
44127;BME280;29786;50.798;7.302;2023-10-08T05:05:50;99950;;;15.58;100
44127;BME280;29786;50.798;7.302;2023-10-08T05:06:50;99970;;;15.54;100
44127;BME280;29786;50.798;7.302;2023-10-08T05:07:50;99990;;;15.54;100
44127;BME280;29786;50.798;7.302;2023-10-08T05:08:50;99980;;;15.51;100
44127;BME280;29786;50.798;7.302;2023-10-08T05:09:50;99990;;;15.51;100
44127;BME280;29786;50.798;7.302;2023-10-08T05:10:50;99990;;;15.47;100
44127;BME280;29786;50.798;7.302;2023-10-08T05:11:51;99990;;;15.46;100
44127;BME280;29786;50.798;7.302;2023-10-08T05:12:50;100000;;;15.46;100
44127;BME280;29786;50.798;7.302;2023-10-08T05:13:50;99990;;;15.4;100
44127;BME280;29786;50.798;7.302;2023-10-08T05:14:50;99990;;;15.36;100
44127;BME280;29786;50.798;7.302;2023-10-08T05:15:50;100000;;;15.33;100
44127;BME280;29786;50.798;7.302;2023-10-08T05:16:50;100000;;;15.36;100
44127;BME280;29786;50.798;7.302;2023-10-08T05:17:50;100000;;;15.37;100
44127;BME280;29786;50.798;7.302;2023-10-08T05:18:50;100000;;;15.35;100
44127;BME280;29786;50.798;7.302;2023-10-08T05:19:50;100000;;;15.39;100
44127;BME280;29786;50.798;7.302;2023-10-08T05:20:50;100000;;;15.32;100
44127;BME280;29786;50.798;7.302;2023-10-08T05:21:50;100000;;;15.36;100
44127;BME280;29786;50.798;7.302;2023-10-08T05:22:50;100000;;;15.29;100
44127;BME280;29786;50.798;7.302;2023-10-08T05:23:50;100000;;;15.28;100
44127;BME280;29786;50.798;7.302;2023-10-08T05:24:50;100010;;;15.29;100
44127;BME280;29786;50.798;7.302;2023-10-08T05:25:50;100000;;;15.32;100
44127;BME280;29786;50.798;7.302;2023-10-08T05:26:50;100000;;;15.22;100
44127;BME280;29786;50.798;7.302;2023-10-08T05:27:51;100000;;;15.24;100
44127;BME280;29786;50.798;7.302;2023-10-08T05:28:50;99990;;;15.19;100
44127;BME280;29786;50.798;7.302;2023-10-08T05:29:50;99990;;;15.22;100
44127;BME280;29786;50.798;7.302;2023-10-08T05:30:50;99990;;;15.25;100
44127;BME280;29786;50.798;7.302;2023-10-08T05:31:50;99990;;;15.21;100
44127;BME280;29786;50.798;7.302;2023-10-08T05:32:50;99990;;;15.27;100
44127;BME280;29786;50.798;7.302;2023-10-08T05:33:50;100000;;;15.25;100
44127;BME280;29786;50.798;7.302;2023-10-08T05:34:50;100000;;;15.21;100
44127;BME280;29786;50.798;7.302;2023-10-08T05:35:50;99990;;;15.13;100
44127;BME280;29786;50.798;7.302;2023-10-08T05:36:50;99970;;;15.18;100
44127;BME280;29786;50.798;7.302;2023-10-08T05:37:50;99980;;;15.21;100
44127;BME280;29786;50.798;7.302;2023-10-08T05:38:50;99990;;;15.12;100
44127;BME280;29786;50.798;7.302;2023-10-08T05:39:50;99990;;;15.11;100
44127;BME280;29786;50.798;7.302;2023-10-08T05:40:51;99990;;;15.13;100
44127;BME280;29786;50.798;7.302;2023-10-08T05:41:50;100000;;;15.03;100